Time;durP1;ratioP1;P1;durP2;ratioP2;P2;SDS_P1;SDS_P2;PMS_P1;PMS_P2;Temp;Humidity;BMP_temperature;BMP_pressure;BME280_temperature;BME280_humidity;BME280_pressure;Samples;Min_cycle;Max_cycle;Signal;HPM_P1;HPM_P2
2021/07/22 00:01:47;;;;;;;17.17;7.33;;;;;;;11.63;84.35;101842.47;5071879;28;20727;-77
2021/07/22 00:04:12;;;;;;;15.23;7.23;;;;;;;11.66;84.08;101831.50;5071526;28;20086;-78
2021/07/22 00:06:37;;;;;;;14.10;6.57;;;;;;;11.71;83.88;101836.44;5072535;28;20055;-77
2021/07/22 00:09:03;;;;;;;11.77;7.00;;;;;;;11.75;83.81;101837.81;5054750;28;20063;-77
2021/07/22 00:11:28;;;;;;;12.70;6.90;;;;;;;11.70;84.04;101832.06;5072684;28;20024;-78
2021/07/22 00:13:53;;;;;;;12.53;6.87;;;;;;;11.66;84.16;101826.16;5072406;28;20033;-78
2021/07/22 00:16:19;;;;;;;11.93;7.33;;;;;;;11.60;84.22;101835.59;5054566;28;20033;-78
2021/07/22 00:18:44;;;;;;;11.17;6.73;;;;;;;11.52;84.55;101835.47;5071439;28;20036;-77
2021/07/22 00:21:10;;;;;;;20.70;6.70;;;;;;;11.55;85.27;101835.16;5072574;28;20056;-77
2021/07/22 00:23:35;;;;;;;11.60;7.27;;;;;;;11.59;84.87;101841.09;5071141;28;20060;-78
2021/07/22 00:26:05;;;;;;;16.57;8.03;;;;;;;11.62;84.76;101841.63;5071032;28;20149;-78
2021/07/22 00:28:30;;;;;;;24.98;7.47;;;;;;;11.60;84.04;101819.53;5072379;28;20131;-78
2021/07/22 00:30:56;;;;;;;13.83;7.33;;;;;;;11.54;84.70;101825.47;5072375;28;20407;-78
2021/07/22 00:33:22;;;;;;;12.38;7.07;;;;;;;11.55;84.93;101824.47;5071050;28;20040;-78
2021/07/22 00:35:48;;;;;;;17.10;7.03;;;;;;;11.55;84.93;101829.00;5054287;28;20036;-77
2021/07/22 00:38:15;;;;;;;10.77;6.78;;;;;;;11.55;84.95;101839.69;5071894;28;20067;-78
2021/07/22 00:40:44;;;;;;;;;;;;;;;11.57;84.75;101825.19;5072609;28;20039;-78
2021/07/22 00:43:10;;;;;;;18.50;7.43;;;;;;;11.51;85.04;101827.56;5054408;28;19925;-78
2021/07/22 00:45:37;;;;;;;14.95;7.88;;;;;;;11.50;85.30;101831.25;5054373;28;20055;-78
2021/07/22 00:48:03;;;;;;;14.07;7.13;;;;;;;11.52;84.93;101827.44;5070982;28;20025;-78
2021/07/22 00:50:30;;;;;;;12.82;7.57;;;;;;;11.58;84.71;101828.69;5071197;28;20044;-78
2021/07/22 00:52:57;;;;;;;22.73;8.68;;;;;;;11.51;84.71;101824.91;5071601;28;20369;-78
2021/07/22 00:55:26;;;;;;;12.80;6.78;;;;;;;11.55;85.12;101829.00;5054100;28;20074;-78
2021/07/22 00:57:52;;;;;;;16.10;7.05;;;;;;;11.65;85.25;101827.13;5071566;28;20416;-78
2021/07/22 01:00:17;;;;;;;13.27;7.40;;;;;;;11.78;84.89;101841.06;5071597;28;20044;-78
2021/07/22 01:02:43;;;;;;;18.92;7.60;;;;;;;11.84;84.74;101844.97;5070591;28;20071;-77
2021/07/22 01:05:10;;;;;;;13.95;6.20;;;;;;;11.90;84.38;101835.59;5071259;28;20032;-78
2021/07/22 01:07:37;;;;;;;12.40;7.53;;;;;;;11.93;83.92;101832.59;5052917;28;20040;-78
2021/07/22 01:10:05;;;;;;;18.10;7.65;;;;;;;12.08;83.41;101841.88;5053525;28;20090;-78
2021/07/22 01:12:31;;;;;;;;;;;;;;;12.14;82.50;101843.94;5070614;28;20039;-78
2021/07/22 01:14:57;;;;;;;14.88;7.60;;;;;;;12.15;82.78;101836.75;5069955;28;20014;-78
2021/07/22 01:17:34;;;;;;;12.57;6.93;;;;;;;12.28;81.80;101829.25;5053388;28;20131;-78
2021/07/22 01:20:01;;;;;;;14.75;6.97;;;;;;;12.31;81.63;101830.78;5069919;28;20040;-78
2021/07/22 01:22:30;;;;;;;12.52;6.18;;;;;;;12.30;81.76;101837.97;5069971;28;20487;-78
2021/07/22 01:24:56;;;;;;;12.85;6.72;;;;;;;12.39;81.09;101845.13;5053145;28;20457;-78
2021/07/22 01:27:21;;;;;;;10.90;6.55;;;;;;;12.42;81.14;101827.91;5069866;28;20040;-78
2021/07/22 01:29:49;;;;;;;17.00;7.05;;;;;;;12.43;81.50;101829.59;5069714;28;20082;-78
2021/07/22 01:32:14;;;;;;;13.20;6.63;;;;;;;12.46;80.97;101818.59;5070705;28;20032;-78
2021/07/22 01:34:41;;;;;;;9.43;5.97;;;;;;;12.41;80.82;101823.56;5070653;28;20031;-78
2021/07/22 01:37:07;;;;;;;;;;;;;;;12.45;80.51;101828.47;5069700;28;20044;-77
2021/07/22 01:39:33;;;;;;;11.73;5.95;;;;;;;12.49;79.61;101812.94;5069686;28;19919;-77
2021/07/22 01:41:59;;;;;;;16.65;6.03;;;;;;;12.52;79.59;101817.16;5069341;28;20120;-78
2021/07/22 01:44:24;;;;;;;8.73;5.33;;;;;;;12.45;80.03;101820.44;5070589;28;20099;-78
2021/07/22 01:46:51;;;;;;;11.18;5.47;;;;;;;12.43;80.18;101837.63;5052798;28;20032;-78
2021/07/22 01:49:17;;;;;;;11.30;6.55;;;;;;;12.43;79.84;101817.06;5053038;28;20036;-78
2021/07/22 01:51:42;;;;;;;15.07;6.23;;;;;;;12.46;79.47;101813.25;5070256;28;20046;-78
2021/07/22 01:54:09;;;;;;;;;;;;;;;12.48;79.30;101816.63;5069801;28;20111;-78
2021/07/22 01:56:35;;;;;;;;;;;;;;;12.53;79.46;101827.72;5052944;28;19955;-78
2021/07/22 01:59:00;;;;;;;12.57;5.85;;;;;;;12.48;79.51;101830.00;5069280;28;20365;-79
2021/07/22 02:01:27;;;;;;;9.05;5.03;;;;;;;12.52;79.74;101831.38;5070175;28;20059;-78
2021/07/22 02:04:03;;;;;;;12.10;5.50;;;;;;;12.49;79.86;101834.38;5069278;28;20038;-79
2021/07/22 02:06:30;;;;;;;12.65;5.60;;;;;;;12.53;79.39;101816.19;5068956;28;20271;-78
2021/07/22 02:08:57;;;;;;;8.45;5.45;;;;;;;12.55;78.69;101825.75;5069468;28;20043;-78
2021/07/22 02:11:23;;;;;;;11.30;5.55;;;;;;;12.61;78.37;101824.28;5069204;28;20037;-79
2021/07/22 02:13:49;;;;;;;;;;;;;;;12.64;78.63;101827.53;5052970;28;20162;-78
2021/07/22 02:16:15;;;;;;;9.38;4.72;;;;;;;12.61;78.43;101843.88;5068737;28;19934;-79
2021/07/22 02:18:43;;;;;;;9.48;4.40;;;;;;;12.58;77.41;101821.94;5070146;28;20032;-79
2021/07/22 02:21:16;;;;;;;13.48;5.57;;;;;;;12.60;77.62;101826.13;5069135;28;20028;-79
2021/07/22 02:23:46;;;;;;;10.75;4.43;;;;;;;12.66;76.40;101825.53;5053120;28;20036;-78
2021/07/22 02:26:17;;;;;;;8.55;4.50;;;;;;;12.62;77.49;101824.16;5068794;28;20082;-78
2021/07/22 02:28:43;;;;;;;12.50;4.47;;;;;;;12.68;77.60;101828.91;5069844;28;20040;-78
2021/07/22 02:31:09;;;;;;;6.78;4.38;;;;;;;12.65;77.75;101823.00;5052426;28;20028;-78
2021/07/22 02:33:34;;;;;;;5.63;3.80;;;;;;;12.60;76.81;101826.13;5068679;28;20048;-77
2021/07/22 02:36:02;;;;;;;5.20;3.83;;;;;;;12.68;76.68;101823.53;5068424;28;20322;-79
2021/07/22 02:38:28;;;;;;;13.80;4.90;;;;;;;12.63;76.10;101825.00;5068758;28;20047;-78
2021/07/22 02:40:53;;;;;;;7.88;4.05;;;;;;;12.63;76.60;101825.84;5052304;28;20047;-78
2021/07/22 02:43:22;;;;;;;16.25;5.00;;;;;;;12.54;76.50;101824.03;5068455;28;20032;-78
2021/07/22 02:45:48;;;;;;;8.82;3.78;;;;;;;12.55;76.93;101828.44;5068500;28;20424;-78
2021/07/22 02:48:15;;;;;;;11.73;4.38;;;;;;;12.62;77.24;101824.16;5052130;28;20037;-77
2021/07/22 02:50:41;;;;;;;5.80;3.35;;;;;;;12.67;76.30;101824.53;5069950;28;20028;-78
2021/07/22 02:53:07;;;;;;;9.60;4.13;;;;;;;12.74;75.85;101832.84;5068399;28;20408;-78
2021/07/22 02:56:05;;;;;;;12.23;3.97;;;;;;;12.69;76.37;101829.75;5059528;28;20499;-78
2021/07/22 02:58:32;;;;;;;11.60;4.15;;;;;;;12.60;75.66;101809.22;5068648;28;20058;-78
2021/07/22 03:00:58;;;;;;;6.43;3.45;;;;;;;12.46;76.79;101822.13;5069759;28;20024;-78
2021/07/22 03:03:24;;;;;;;8.37;4.10;;;;;;;12.42;77.08;101825.25;5068305;28;20094;-78
2021/07/22 03:05:49;;;;;;;8.95;3.88;;;;;;;12.44;77.11;101829.47;5069258;28;20085;-78
2021/07/22 03:08:16;;;;;;;11.75;4.03;;;;;;;12.55;76.75;101822.19;5068345;28;20040;-78
2021/07/22 03:10:42;;;;;;;10.70;4.97;;;;;;;12.53;76.72;101830.41;5068920;28;20469;-78
2021/07/22 03:13:08;;;;;;;6.53;3.33;;;;;;;12.58;76.58;101821.94;5051716;28;20065;-78
2021/07/22 03:15:35;;;;;;;6.93;3.72;;;;;;;12.61;76.14;101827.81;5052069;28;20549;-78
2021/07/22 03:18:09;;;;;;;9.32;3.45;;;;;;;12.65;75.98;101831.06;5053095;28;20499;-78
2021/07/22 03:20:35;;;;;;;9.63;3.85;;;;;;;12.70;76.71;101827.91;5069516;28;20450;-78
2021/07/22 03:23:02;;;;;;;9.57;3.83;;;;;;;12.74;75.36;101832.84;5069509;28;20032;-78
2021/07/22 03:25:29;;;;;;;7.25;3.53;;;;;;;12.70;75.90;101827.91;5069458;28;20082;-78
2021/07/22 03:28:04;;;;;;;6.40;3.38;;;;;;;12.71;76.10;101824.22;5052436;28;20067;-78
2021/07/22 03:30:48;;;;;;;;;;;;;;;12.62;76.12;101829.50;5069183;28;20063;-78
2021/07/22 03:33:44;;;;;;;9.10;3.50;;;;;;;12.72;76.64;101842.84;5071803;28;20261;-78
2021/07/22 03:36:18;;;;;;;8.45;4.07;;;;;;;12.65;76.15;101814.97;5071763;28;20032;-78
2021/07/22 03:38:52;;;;;;;6.35;3.15;;;;;;;12.71;76.23;101827.75;5071721;28;20032;-79
2021/07/22 03:41:33;;;;;;;7.13;3.38;;;;;;;12.78;76.56;101833.34;5072757;28;20044;-79
2021/07/22 03:44:15;;;;;;;10.77;4.30;;;;;;;12.78;76.41;101828.00;5071667;28;20049;-79
2021/07/22 03:46:41;;;;;;;9.57;4.75;;;;;;;12.80;76.35;101823.34;5072764;28;20029;-78
2021/07/22 03:49:09;;;;;;;9.30;3.40;;;;;;;12.81;76.26;101822.34;5071841;28;20029;-78
2021/07/22 03:51:35;;;;;;;10.53;3.60;;;;;;;12.88;74.74;101820.75;5071862;28;20058;-78
2021/07/22 03:54:00;;;;;;;5.47;4.07;;;;;;;12.94;74.62;101822.81;5072698;28;20056;-77
2021/07/22 03:56:26;;;;;;;10.90;4.53;;;;;;;12.99;74.62;101836.59;5071484;28;20060;-78
2021/07/22 03:59:01;;;;;;;8.50;3.65;;;;;;;13.00;74.88;101824.91;5072980;28;20032;-78
2021/07/22 04:01:33;;;;;;;13.80;5.18;;;;;;;12.98;74.90;101821.53;5071349;28;20033;-78
2021/07/22 04:04:04;;;;;;;8.10;3.30;;;;;;;13.00;74.27;101822.22;5071336;28;20094;-79
2021/07/22 04:06:34;;;;;;;7.90;3.80;;;;;;;13.08;73.67;101827.66;5071036;28;20450;-77
2021/07/22 04:09:04;;;;;;;9.27;3.70;;;;;;;13.05;73.21;101822.59;5071588;28;20074;-78
2021/07/22 04:11:50;;;;;;;12.52;3.95;;;;;;;13.13;73.07;101826.34;5071811;28;20044;-78
2021/07/22 04:14:34;;;;;;;8.05;3.28;;;;;;;13.12;73.07;101830.03;5071788;28;20488;-79
2021/07/22 04:17:15;;;;;;;9.50;3.35;;;;;;;13.18;72.35;101830.28;5071197;28;20518;-78
2021/07/22 04:20:10;;;;;;;14.68;3.22;;;;;;;13.23;72.82;101833.34;5063041;28;20127;-78
2021/07/22 04:22:58;;;;;;;8.43;3.08;;;;;;;13.32;71.80;101834.25;5072576;28;20043;-79
2021/07/22 04:25:37;;;;;;;8.15;3.80;;;;;;;13.37;71.82;101829.31;5071118;28;20369;-78
2021/07/22 04:28:13;;;;;;;5.97;3.20;;;;;;;13.43;73.52;101836.72;5071178;28;20033;-78
2021/07/22 04:30:40;;;;;;;9.65;4.32;;;;;;;13.45;72.10;101820.47;5054670;28;20032;-79
2021/07/22 04:33:13;;;;;;;6.57;3.17;;;;;;;13.49;71.75;101825.38;5072018;28;20021;-79
2021/07/22 04:35:56;;;;;;;9.60;2.70;;;;;;;13.60;68.64;101839.53;5070558;28;20465;-79
2021/07/22 04:38:40;;;;;;;9.48;3.08;;;;;;;13.67;68.79;101824.50;5071283;28;20102;-78
2021/07/22 04:41:17;;;;;;;13.15;3.90;;;;;;;13.66;69.68;101828.19;5071047;28;20052;-78
2021/07/22 04:43:53;;;;;;;8.65;2.83;;;;;;;13.72;68.86;101825.72;5055619;28;20036;-78
2021/07/22 04:46:39;;;;;;;9.50;3.10;;;;;;;13.76;69.04;101823.56;5070833;28;20036;-78
2021/07/22 04:49:18;;;;;;;6.65;3.20;;;;;;;13.86;68.40;101828.81;5072066;28;20029;-78
2021/07/22 04:51:58;;;;;;;5.80;2.60;;;;;;;13.91;68.68;101837.25;5071676;28;20043;-78
2021/07/22 04:54:28;;;;;;;9.85;3.03;;;;;;;13.96;68.67;101832.25;5070481;28;20106;-79
2021/07/22 04:56:54;;;;;;;8.75;3.22;;;;;;;13.99;67.14;101823.03;5070361;28;20630;-77
2021/07/22 04:59:21;;;;;;;7.28;3.13;;;;;;;13.91;68.56;101827.34;5054580;28;20131;-78
2021/07/22 05:01:47;;;;;;;7.25;3.08;;;;;;;13.98;69.11;101826.69;5070459;28;20400;-78
2021/07/22 05:04:18;;;;;;;17.67;4.30;;;;;;;14.01;69.59;101829.09;5071296;28;20560;-78
2021/07/22 05:06:50;;;;;;;5.85;2.60;;;;;;;14.05;67.81;101828.63;5070049;28;20400;-78
2021/07/22 05:09:41;;;;;;;9.73;2.28;;;;;;;14.06;68.42;101824.09;5057657;28;20033;-78
2021/07/22 05:12:20;;;;;;;7.50;3.20;;;;;;;14.07;69.43;101823.06;5055333;28;20040;-78
2021/07/22 05:14:58;;;;;;;5.03;2.10;;;;;;;14.14;68.23;101819.59;5070398;28;20135;-78
2021/07/22 05:17:47;;;;;;;4.57;2.83;;;;;;;14.18;67.96;101830.03;5051161;28;20043;-78
2021/07/22 05:20:42;;;;;;;6.90;2.45;;;;;;;14.21;67.89;101833.25;5061589;28;20051;-78
2021/07/22 05:23:13;;;;;;;8.32;3.35;;;;;;;14.32;68.63;101835.63;5069961;28;20028;-78
2021/07/22 05:26:03;;;;;;;6.65;2.70;;;;;;;14.43;66.07;101833.69;5039347;28;20044;-78
2021/07/22 05:28:38;;;;;;;8.05;2.55;;;;;;;14.40;66.14;101833.97;5070114;28;20048;-77
2021/07/22 05:31:12;;;;;;;10.80;2.72;;;;;;;14.42;66.44;101831.97;5070333;28;20064;-78
2021/07/22 05:33:56;;;;;;;4.25;2.42;;;;;;;14.61;66.29;101845.22;5069832;28;20523;-78
2021/07/22 05:36:38;;;;;;;13.70;3.10;;;;;;;14.68;67.04;101846.25;5055311;28;20029;-78
2021/07/22 05:39:24;;;;;;;5.50;2.55;;;;;;;14.72;66.22;101838.69;5059903;28;20519;-78
2021/07/22 05:41:49;;;;;;;11.20;3.10;;;;;;;14.88;65.18;101840.56;5069578;28;20036;-79
2021/07/22 05:44:15;;;;;;;7.40;3.13;;;;;;;14.60;65.80;101838.13;5070564;28;20408;-79
2021/07/22 05:46:40;;;;;;;3.87;2.87;;;;;;;14.72;66.58;101828.75;5069453;28;20029;-78
2021/07/22 05:49:06;;;;;;;7.10;2.20;;;;;;;14.75;65.22;101828.44;5070593;28;20036;-78
2021/07/22 05:51:32;;;;;;;9.82;2.15;;;;;;;14.86;65.92;101826.44;5069621;28;20432;-79
2021/07/22 05:53:59;;;;;;;4.80;2.00;;;;;;;14.89;66.06;101839.56;5069754;28;20072;-79
2021/07/22 05:56:24;;;;;;;;;;;;;;;14.93;64.86;101839.06;5069785;28;20032;-78
2021/07/22 05:58:51;;;;;;;6.65;1.85;;;;;;;15.05;63.22;101836.91;5068507;28;20011;-78
2021/07/22 06:01:18;;;;;;;9.50;2.53;;;;;;;15.05;63.60;101839.59;5067949;28;20472;-78
2021/07/22 06:03:43;;;;;;;5.50;2.63;;;;;;;14.95;64.08;101836.22;5067908;28;20071;-78
2021/07/22 06:06:09;;;;;;;5.30;2.40;;;;;;;15.04;64.82;101840.63;5050970;28;20020;-78
2021/07/22 06:08:37;;;;;;;6.77;2.30;;;;;;;15.06;63.15;101835.91;5068002;28;20115;-78
2021/07/22 06:11:06;;;;;;;7.88;2.60;;;;;;;15.13;64.94;101841.47;5068320;28;20531;-79
2021/07/22 06:13:35;;;;;;;3.60;2.05;;;;;;;15.23;63.68;101836.78;5068663;28;20039;-79
2021/07/22 06:16:01;;;;;;;4.40;2.35;;;;;;;15.32;63.51;101845.69;5069530;28;20103;-79
2021/07/22 06:18:28;;;;;;;9.45;2.00;;;;;;;15.34;63.13;101841.00;5070464;28;20036;-78
2021/07/22 06:20:54;;;;;;;3.85;1.77;;;;;;;15.57;61.88;101842.00;5069201;28;20048;-79
2021/07/22 06:23:19;;;;;;;4.73;2.40;;;;;;;15.46;61.48;101839.66;5069284;28;20085;-78
2021/07/22 06:25:44;;;;;;;3.83;1.83;;;;;;;15.54;61.89;101847.72;5051909;28;20442;-79
2021/07/22 06:28:10;;;;;;;10.37;2.80;;;;;;;15.46;62.06;101842.34;5069828;28;20060;-78
2021/07/22 06:30:35;;;;;;;4.27;1.50;;;;;;;15.59;61.62;101850.75;5069041;28;20040;-78
2021/07/22 06:33:00;;;;;;;8.83;2.50;;;;;;;15.65;62.79;101853.78;5070043;28;20032;-78
2021/07/22 06:35:26;;;;;;;7.20;1.80;;;;;;;15.37;62.40;101833.41;5069997;28;20036;-77
2021/07/22 06:37:51;;;;;;;3.07;1.67;;;;;;;15.22;61.42;101818.97;5069000;28;20040;-76
2021/07/22 06:40:24;;;;;;;5.90;1.55;;;;;;;15.12;63.22;101827.16;5068926;28;20478;-77
2021/07/22 06:42:49;;;;;;;14.40;1.67;;;;;;;15.13;62.39;101825.34;5052077;28;20032;-78
2021/07/22 06:45:15;;;;;;;9.83;2.00;;;;;;;15.30;61.65;101829.72;5069893;28;20036;-78
2021/07/22 06:47:40;;;;;;;7.97;2.20;;;;;;;15.24;61.82;101813.41;5068898;28;20556;-77
2021/07/22 06:50:08;;;;;;;4.55;2.25;;;;;;;15.50;63.42;101827.53;5069115;28;20079;-77
2021/07/22 06:52:37;;;;;;;7.38;2.33;;;;;;;15.42;61.71;101822.16;5068607;28;20127;-79
2021/07/22 06:55:04;;;;;;;6.75;1.48;;;;;;;15.62;61.36;101828.88;5052135;28;20451;-78
2021/07/22 06:57:30;;;;;;;4.70;1.70;;;;;;;15.59;61.18;101825.66;5068700;28;20021;-78
2021/07/22 06:59:55;;;;;;;11.00;3.00;;;;;;;15.53;61.43;101835.28;5052528;28;20028;-79
2021/07/22 07:02:21;;;;;;;8.70;1.90;;;;;;;15.72;60.11;101839.50;5069801;28;20470;-79
2021/07/22 07:04:46;;;;;;;5.13;1.60;;;;;;;15.87;60.34;101836.09;5069795;28;20456;-77
2021/07/22 07:07:11;;;;;;;6.23;1.73;;;;;;;15.82;61.04;101839.31;5070768;28;20036;-78
2021/07/22 07:09:37;;;;;;;5.87;1.50;;;;;;;15.81;59.43;101832.25;5073897;28;20032;-77
2021/07/22 07:12:04;;;;;;;6.03;2.40;;;;;;;15.94;61.00;101832.56;5056001;28;20131;-78
2021/07/22 07:14:31;;;;;;;5.90;1.63;;;;;;;16.04;60.70;101837.78;5073608;28;20442;-77
2021/07/22 07:16:56;;;;;;;7.78;2.28;;;;;;;16.10;61.89;101833.53;5072499;28;20043;-77
2021/07/22 07:19:22;;;;;;;6.00;2.43;;;;;;;16.11;60.98;101843.28;5073636;28;20032;-77
2021/07/22 07:21:47;;;;;;;7.23;2.10;;;;;;;16.29;60.29;101841.22;5073001;28;20028;-77
2021/07/22 07:24:12;;;;;;;9.10;1.80;;;;;;;16.42;60.12;101838.00;5072189;28;20044;-77
2021/07/22 07:26:38;;;;;;;11.77;2.67;;;;;;;16.66;60.03;101837.03;5072134;28;20049;-77
2021/07/22 07:29:03;;;;;;;6.20;1.43;;;;;;;16.34;59.35;101836.16;5073094;28;20094;-77
2021/07/22 07:31:28;;;;;;;5.07;1.83;;;;;;;16.38;58.94;101831.25;5072233;28;20036;-78
2021/07/22 07:33:54;;;;;;;6.27;1.27;;;;;;;16.44;58.00;101842.19;5072014;28;20028;-77
2021/07/22 07:36:19;;;;;;;4.27;1.80;;;;;;;16.72;59.17;101843.59;5073017;28;20039;-77
2021/07/22 07:38:44;;;;;;;9.73;2.70;;;;;;;17.09;57.94;101842.88;5055299;28;20032;-77
2021/07/22 07:41:10;;;;;;;8.40;1.67;;;;;;;17.24;58.32;101846.50;5055781;28;20543;-78
2021/07/22 07:43:35;;;;;;;6.67;1.83;;;;;;;17.40;55.25;101850.09;5055373;28;20031;-77
2021/07/22 07:46:00;;;;;;;6.50;1.70;;;;;;;17.12;56.27;101839.00;5054972;28;20045;-78
2021/07/22 07:48:26;;;;;;;5.40;1.57;;;;;;;17.04;56.46;101843.44;5073224;28;20134;-78
2021/07/22 07:50:51;;;;;;;5.40;2.10;;;;;;;16.85;55.72;101836.63;5055561;28;20484;-77
2021/07/22 07:53:18;;;;;;;10.07;1.90;;;;;;;16.92;57.60;101842.16;5072000;28;20048;-77
2021/07/22 07:55:45;;;;;;;5.00;1.35;;;;;;;16.93;56.80;101837.59;5071662;28;20036;-80
2021/07/22 07:58:10;;;;;;;5.32;1.50;;;;;;;16.66;56.80;101824.38;5055199;28;20465;-79
2021/07/22 08:00:37;;;;;;;2.93;1.57;;;;;;;16.67;56.87;101833.34;5073113;28;20080;-77
2021/07/22 08:03:03;;;;;;;3.70;1.35;;;;;;;16.91;56.97;101840.47;5071799;28;20377;-76
2021/07/22 08:05:29;;;;;;;4.53;1.67;;;;;;;16.78;56.93;101830.22;5071885;28;20016;-77
2021/07/22 08:07:54;;;;;;;5.33;1.63;;;;;;;16.95;56.52;101835.56;5071710;28;20279;-77
2021/07/22 08:10:20;;;;;;;5.83;1.50;;;;;;;16.72;54.77;101832.81;5055187;28;20446;-77
2021/07/22 08:12:46;;;;;;;7.15;1.85;;;;;;;16.92;54.96;101834.06;5055047;28;20358;-77
2021/07/22 08:15:12;;;;;;;5.72;2.08;;;;;;;17.27;54.94;101840.72;5071569;28;20660;-77
2021/07/22 08:17:37;;;;;;;10.65;2.53;;;;;;;17.43;57.10;101839.75;5071962;28;20036;-77
2021/07/22 08:20:06;;;;;;;6.63;1.80;;;;;;;17.25;56.64;101837.38;5071550;28;20128;-77
2021/07/22 08:22:32;;;;;;;6.63;1.55;;;;;;;16.90;54.94;101822.59;5054936;28;20036;-77
2021/07/22 08:24:58;;;;;;;8.52;1.60;;;;;;;17.49;55.44;101846.31;5071378;28;20036;-76
2021/07/22 08:27:28;;;;;;;3.65;1.23;;;;;;;18.25;54.26;101857.09;5071254;28;20020;-77
2021/07/22 08:29:53;;;;;;;6.22;1.75;;;;;;;17.79;54.74;101832.88;5071501;28;20450;-76
2021/07/22 08:32:20;;;;;;;4.32;1.38;;;;;;;17.54;53.16;101835.81;5071057;28;20090;-76
2021/07/22 08:34:45;;;;;;;;;;;;;;;17.54;53.32;101835.81;5072478;28;20459;-76
2021/07/22 08:37:11;;;;;;;;;;;;;;;17.82;54.08;101832.56;5072595;28;19916;-77
2021/07/22 08:39:40;;;;;;;9.47;1.93;;;;;;;17.78;54.38;101834.72;5071984;28;19916;-76
2021/07/22 08:42:07;;;;;;;4.15;1.33;;;;;;;17.75;53.29;101836.94;5071282;28;20427;-77
2021/07/22 08:44:35;;;;;;;4.72;1.50;;;;;;;17.46;54.42;101828.59;5072016;28;20024;-77
2021/07/22 08:47:01;;;;;;;9.30;1.98;;;;;;;17.87;53.75;101841.78;5070872;28;20036;-77
2021/07/22 08:49:27;;;;;;;10.20;1.65;;;;;;;17.89;53.00;101822.69;5071016;28;20043;-77
2021/07/22 08:51:54;;;;;;;6.78;1.73;;;;;;;18.22;53.58;101833.13;5072098;28;20024;-77
2021/07/22 08:54:19;;;;;;;2.13;1.40;;;;;;;18.32;54.75;101839.09;5070967;28;20117;-77
2021/07/22 08:56:46;;;;;;;9.07;1.50;;;;;;;17.96;53.48;101829.03;5070838;28;20189;-77
2021/07/22 08:59:12;;;;;;;;;;;;;;;18.47;54.09;101837.22;5071605;28;20106;-77
2021/07/22 09:01:37;;;;;;;;;;;;;;;18.38;53.35;101832.09;5071230;28;19913;-76
2021/07/22 09:04:02;;;;;;;3.90;1.50;;;;;;;18.42;51.98;101827.97;5071569;28;20361;-77
2021/07/22 09:06:28;;;;;;;3.40;1.20;;;;;;;18.44;55.46;101826.78;5053825;28;20339;-76
2021/07/22 09:08:57;;;;;;;9.07;1.43;;;;;;;18.88;51.26;101844.81;5070879;28;20449;-76
2021/07/22 09:11:22;;;;;;;6.95;1.52;;;;;;;19.45;51.60;101853.91;5071571;28;20032;-77
2021/07/22 09:14:06;;;;;;;7.00;1.30;;;;;;;19.26;50.60;101846.47;5070623;28;20048;-77
2021/07/22 09:16:38;;;;;;;5.10;1.15;;;;;;;18.81;50.82;101826.84;5070026;28;20047;-77
2021/07/22 09:19:03;;;;;;;10.35;1.40;;;;;;;18.81;51.36;101835.78;5071503;28;20173;-77
2021/07/22 09:21:28;;;;;;;4.70;2.17;;;;;;;18.71;53.42;101832.53;5053568;28;20116;-77
2021/07/22 09:24:14;;;;;;;16.17;2.60;;;;;;;18.11;52.58;101812.81;5053731;28;20064;-77
2021/07/22 09:26:43;;;;;;;4.40;1.23;;;;;;;18.50;52.39;101831.44;5070356;28;20044;-77
2021/07/22 09:29:10;;;;;;;7.72;1.40;;;;;;;18.33;54.13;101824.53;5069431;28;20036;-76
2021/07/22 09:31:36;;;;;;;7.63;1.48;;;;;;;18.08;53.22;101814.03;5070196;28;20157;-77
2021/07/22 09:34:02;;;;;;;3.65;1.40;;;;;;;18.31;51.85;101821.22;5069185;28;20024;-77
2021/07/22 09:36:28;;;;;;;6.45;1.63;;;;;;;18.18;51.89;101815.63;5051580;28;20037;-77
2021/07/22 09:38:53;;;;;;;5.43;1.30;;;;;;;18.69;52.80;101834.56;5051754;28;20644;-76
2021/07/22 09:41:23;;;;;;;5.35;1.27;;;;;;;19.34;49.73;101835.50;5068136;28;20108;-77
2021/07/22 09:43:50;;;;;;;9.93;1.52;;;;;;;18.70;51.55;101814.59;5069129;28;20052;-77
2021/07/22 09:46:15;;;;;;;5.50;1.20;;;;;;;18.68;51.04;101816.66;5067068;28;20102;-76
2021/07/22 09:49:10;;;;;;;6.40;1.13;;;;;;;18.98;51.72;101822.84;5068455;28;20032;-76
2021/07/22 09:51:37;;;;;;;6.05;2.38;;;;;;;18.50;51.91;101814.38;5070284;28;20075;-77
2021/07/22 09:54:15;;;;;;;4.10;1.55;;;;;;;18.38;52.60;101810.44;5052803;28;20028;-76
2021/07/22 09:56:41;;;;;;;5.43;1.80;;;;;;;18.36;54.10;101807.97;5069659;28;20040;-77
2021/07/22 09:59:08;;;;;;;4.50;1.15;;;;;;;18.85;53.73;101818.16;5070261;28;20658;-77
2021/07/22 10:02:04;;;;;;;4.03;1.80;;;;;;;19.71;51.11;101839.78;5070030;28;20464;-76
2021/07/22 10:04:30;;;;;;;6.18;1.35;;;;;;;19.63;48.38;101826.38;5067421;28;20375;-76
2021/07/22 10:06:58;;;;;;;4.97;2.15;;;;;;;19.65;49.24;101843.28;5069934;28;20040;-77
2021/07/22 10:09:25;;;;;;;11.70;1.70;;;;;;;19.34;51.60;101825.50;5070131;28;20418;-76
2021/07/22 10:11:51;;;;;;;10.07;2.20;;;;;;;19.39;51.86;101827.63;5052598;28;20032;-77
2021/07/22 10:14:18;;;;;;;;;;;;;;;20.31;50.92;101850.22;5052815;28;20032;-76
2021/07/22 10:16:47;;;;;;;8.35;2.83;;;;;;;20.31;50.30;101842.06;5069931;28;20268;-77
2021/07/22 10:19:13;;;;;;;4.88;1.20;;;;;;;20.24;49.88;101842.88;5069221;28;20033;-77
2021/07/22 10:21:38;;;;;;;6.77;2.07;;;;;;;19.69;50.01;101814.78;5070288;28;20461;-77
2021/07/22 10:24:05;;;;;;;3.40;1.37;;;;;;;19.79;51.82;101819.88;5052380;28;20450;-77
2021/07/22 10:26:39;;;;;;;6.70;1.40;;;;;;;20.13;49.22;101827.16;5069010;28;20058;-77
2021/07/22 10:29:04;;;;;;;5.28;1.23;;;;;;;20.39;50.73;101823.78;5068920;28;20032;-77
2021/07/22 10:31:30;;;;;;;4.87;1.23;;;;;;;19.90;50.20;101818.47;5052627;28;20032;-77
2021/07/22 10:33:56;;;;;;;7.47;1.60;;;;;;;19.94;50.63;101817.03;5068764;28;20481;-77
2021/07/22 10:36:23;;;;;;;6.90;1.83;;;;;;;19.86;47.73;101803.66;5068860;28;20036;-77
2021/07/22 10:38:48;;;;;;;7.38;1.75;;;;;;;19.50;49.70;101808.16;5052081;28;20040;-77
2021/07/22 10:41:36;;;;;;;5.80;1.40;;;;;;;20.12;50.39;101820.06;5068897;28;20052;-76
2021/07/22 10:44:03;;;;;;;8.48;1.42;;;;;;;20.42;50.33;101825.25;5069723;28;20041;-77
2021/07/22 10:46:58;;;;;;;5.43;1.35;;;;;;;20.05;49.07;101823.78;5068395;28;20079;-77
2021/07/22 10:49:37;;;;;;;8.07;1.38;;;;;;;19.33;50.47;101795.91;5069051;28;20025;-77
2021/07/22 10:52:03;;;;;;;7.18;1.30;;;;;;;19.37;50.97;101795.31;5052022;28;20135;-77
2021/07/22 10:54:54;;;;;;;7.07;1.50;;;;;;;19.96;49.28;101812.25;5068477;28;20035;-77
2021/07/22 10:57:39;;;;;;;3.85;1.50;;;;;;;19.63;50.37;101802.00;5066612;28;20488;-79
2021/07/22 11:00:07;;;;;;;6.40;2.13;;;;;;;19.73;51.93;101798.97;5052063;28;20032;-78
2021/07/22 11:02:43;;;;;;;4.80;1.50;;;;;;;19.98;50.72;101811.03;5069641;28;20090;-77
2021/07/22 11:05:11;;;;;;;3.90;1.65;;;;;;;21.46;47.57;101813.22;5051842;28;20454;-78
2021/07/22 11:07:36;;;;;;;9.05;1.70;;;;;;;20.93;46.97;101813.97;5069513;28;20043;-77
2021/07/22 11:10:03;;;;;;;9.40;1.93;;;;;;;20.65;47.98;101806.78;5069653;28;20040;-77
2021/07/22 11:12:44;;;;;;;4.75;1.55;;;;;;;20.14;50.14;101803.63;5052031;28;20412;-77
2021/07/22 11:15:14;;;;;;;7.03;1.92;;;;;;;21.06;48.01;101811.25;5068422;28;20028;-77
2021/07/22 11:17:39;;;;;;;5.32;1.77;;;;;;;21.38;47.87;101805.25;5068505;28;20044;-77
2021/07/22 11:20:29;;;;;;;4.43;1.10;;;;;;;20.72;46.97;101795.97;5068738;28;20044;-77
2021/07/22 11:22:55;;;;;;;10.35;1.67;;;;;;;21.81;45.92;101819.25;5051921;28;20036;-77
2021/07/22 11:25:21;;;;;;;9.43;1.37;;;;;;;22.05;45.24;101806.03;5068290;28;20032;-77
2021/07/22 11:27:47;;;;;;;7.50;1.40;;;;;;;21.69;45.01;101796.50;5069274;28;20032;-77
2021/07/22 11:30:15;;;;;;;10.35;1.85;;;;;;;21.20;44.82;101779.53;5068454;28;20138;-76
2021/07/22 11:32:41;;;;;;;3.83;1.40;;;;;;;21.83;45.74;101795.41;5068362;28;20229;-77
2021/07/22 11:35:06;;;;;;;3.70;1.00;;;;;;;21.67;47.63;101793.13;5069259;28;20188;-77
2021/07/22 11:37:32;;;;;;;5.43;1.20;;;;;;;21.72;46.52;101779.75;5068401;28;20043;-77